sensor_id;sensor_type;location;lat;lon;timestamp;temperature;humidity
6270;DHT22;3168;51.684;6.954;2022-12-18T00:00:20;-7.90;1.00
6270;DHT22;3168;51.684;6.954;2022-12-18T00:02:47;-7.90;1.00
6270;DHT22;3168;51.684;6.954;2022-12-18T00:05:13;-7.90;1.00
6270;DHT22;3168;51.684;6.954;2022-12-18T00:07:39;-8.00;1.00
6270;DHT22;3168;51.684;6.954;2022-12-18T00:10:05;-8.00;1.00
6270;DHT22;3168;51.684;6.954;2022-12-18T00:12:31;-8.00;1.00
6270;DHT22;3168;51.684;6.954;2022-12-18T00:14:57;-7.90;1.00
6270;DHT22;3168;51.684;6.954;2022-12-18T00:17:23;-7.80;1.00
6270;DHT22;3168;51.684;6.954;2022-12-18T00:19:49;-7.70;1.00
6270;DHT22;3168;51.684;6.954;2022-12-18T00:22:17;-7.90;1.00
6270;DHT22;3168;51.684;6.954;2022-12-18T00:24:43;-7.90;1.00
6270;DHT22;3168;51.684;6.954;2022-12-18T00:27:09;-8.00;1.00
6270;DHT22;3168;51.684;6.954;2022-12-18T00:29:35;-8.10;1.00
6270;DHT22;3168;51.684;6.954;2022-12-18T00:32:01;-8.10;1.00
6270;DHT22;3168;51.684;6.954;2022-12-18T00:34:26;-8.00;1.00
6270;DHT22;3168;51.684;6.954;2022-12-18T00:36:52;-8.00;1.00
6270;DHT22;3168;51.684;6.954;2022-12-18T00:39:19;-8.00;1.00
6270;DHT22;3168;51.684;6.954;2022-12-18T00:41:45;-8.00;1.00
6270;DHT22;3168;51.684;6.954;2022-12-18T00:44:17;-8.10;1.00
6270;DHT22;3168;51.684;6.954;2022-12-18T00:46:43;-8.10;1.00
6270;DHT22;3168;51.684;6.954;2022-12-18T00:49:08;-8.20;1.00
6270;DHT22;3168;51.684;6.954;2022-12-18T00:51:34;-8.10;1.00
6270;DHT22;3168;51.684;6.954;2022-12-18T00:54:00;-8.10;1.00
6270;DHT22;3168;51.684;6.954;2022-12-18T00:56:26;-8.00;1.00
6270;DHT22;3168;51.684;6.954;2022-12-18T00:58:52;-7.90;1.00
6270;DHT22;3168;51.684;6.954;2022-12-18T01:01:18;-8.00;1.00
6270;DHT22;3168;51.684;6.954;2022-12-18T01:03:43;-8.00;1.00
6270;DHT22;3168;51.684;6.954;2022-12-18T01:06:10;-8.00;1.00
6270;DHT22;3168;51.684;6.954;2022-12-18T01:08:35;-8.10;1.00
6270;DHT22;3168;51.684;6.954;2022-12-18T01:11:06;-8.10;1.00
6270;DHT22;3168;51.684;6.954;2022-12-18T01:13:27;-8.20;1.00
6270;DHT22;3168;51.684;6.954;2022-12-18T01:15:53;-8.10;1.00
6270;DHT22;3168;51.684;6.954;2022-12-18T01:18:18;-8.10;1.00
6270;DHT22;3168;51.684;6.954;2022-12-18T01:20:44;-8.00;1.00
6270;DHT22;3168;51.684;6.954;2022-12-18T01:23:10;-8.00;1.00
6270;DHT22;3168;51.684;6.954;2022-12-18T01:25:36;-8.00;1.00
6270;DHT22;3168;51.684;6.954;2022-12-18T01:28:02;-8.10;1.00
6270;DHT22;3168;51.684;6.954;2022-12-18T01:30:28;-8.00;1.00
6270;DHT22;3168;51.684;6.954;2022-12-18T01:32:54;-8.10;1.00
6270;DHT22;3168;51.684;6.954;2022-12-18T01:35:20;-8.20;1.00
6270;DHT22;3168;51.684;6.954;2022-12-18T01:37:45;-8.10;1.00
6270;DHT22;3168;51.684;6.954;2022-12-18T01:40:11;-8.10;1.00
6270;DHT22;3168;51.684;6.954;2022-12-18T01:42:37;-8.10;1.00
6270;DHT22;3168;51.684;6.954;2022-12-18T01:45:08;-8.10;1.00
6270;DHT22;3168;51.684;6.954;2022-12-18T01:47:39;-8.10;1.00
6270;DHT22;3168;51.684;6.954;2022-12-18T01:50:07;-8.20;1.00
6270;DHT22;3168;51.684;6.954;2022-12-18T01:52:33;-8.30;1.00
6270;DHT22;3168;51.684;6.954;2022-12-18T01:54:58;-8.30;1.00
6270;DHT22;3168;51.684;6.954;2022-12-18T01:57:24;-8.30;1.00
6270;DHT22;3168;51.684;6.954;2022-12-18T01:59:52;-8.30;1.00
6270;DHT22;3168;51.684;6.954;2022-12-18T02:02:16;-8.30;1.00
6270;DHT22;3168;51.684;6.954;2022-12-18T02:04:42;-8.30;1.00
6270;DHT22;3168;51.684;6.954;2022-12-18T02:07:44;-8.30;1.00
6270;DHT22;3168;51.684;6.954;2022-12-18T02:09:59;-8.40;1.00
6270;DHT22;3168;51.684;6.954;2022-12-18T02:12:24;-8.30;1.00
6270;DHT22;3168;51.684;6.954;2022-12-18T02:15:30;-8.50;1.00
6270;DHT22;3168;51.684;6.954;2022-12-18T02:17:50;-8.40;1.00
6270;DHT22;3168;51.684;6.954;2022-12-18T02:20:18;-8.30;1.00
6270;DHT22;3168;51.684;6.954;2022-12-18T02:22:47;-8.40;1.00
6270;DHT22;3168;51.684;6.954;2022-12-18T02:28:00;-8.20;1.00
6270;DHT22;3168;51.684;6.954;2022-12-18T02:30:26;-8.30;1.00
6270;DHT22;3168;51.684;6.954;2022-12-18T02:32:52;-8.40;1.00
6270;DHT22;3168;51.684;6.954;2022-12-18T02:35:20;-8.30;1.00
6270;DHT22;3168;51.684;6.954;2022-12-18T02:37:43;-8.30;1.00
6270;DHT22;3168;51.684;6.954;2022-12-18T02:40:09;-8.30;1.00
6270;DHT22;3168;51.684;6.954;2022-12-18T02:42:35;-8.40;1.00
6270;DHT22;3168;51.684;6.954;2022-12-18T02:45:01;-8.40;1.00
6270;DHT22;3168;51.684;6.954;2022-12-18T02:47:29;-8.40;1.00
6270;DHT22;3168;51.684;6.954;2022-12-18T02:50:08;-8.60;1.00
6270;DHT22;3168;51.684;6.954;2022-12-18T02:52:45;-8.50;1.00
6270;DHT22;3168;51.684;6.954;2022-12-18T02:55:13;-8.40;1.00
6270;DHT22;3168;51.684;6.954;2022-12-18T02:57:42;-8.60;1.00
6270;DHT22;3168;51.684;6.954;2022-12-18T03:00:06;-8.60;1.00
6270;DHT22;3168;51.684;6.954;2022-12-18T03:02:41;-8.60;1.00
6270;DHT22;3168;51.684;6.954;2022-12-18T03:05:15;-8.60;1.00
6270;DHT22;3168;51.684;6.954;2022-12-18T03:07:42;-8.50;1.00
6270;DHT22;3168;51.684;6.954;2022-12-18T03:10:07;-8.50;1.00
6270;DHT22;3168;51.684;6.954;2022-12-18T03:12:35;-8.50;1.00
6270;DHT22;3168;51.684;6.954;2022-12-18T03:15:13;-8.40;1.00
6270;DHT22;3168;51.684;6.954;2022-12-18T03:17:38;-8.40;1.00
6270;DHT22;3168;51.684;6.954;2022-12-18T03:20:06;-8.60;1.00
6270;DHT22;3168;51.684;6.954;2022-12-18T03:22:32;-8.50;1.00
6270;DHT22;3168;51.684;6.954;2022-12-18T03:24:57;-8.50;1.00
6270;DHT22;3168;51.684;6.954;2022-12-18T03:27:23;-8.60;1.00
6270;DHT22;3168;51.684;6.954;2022-12-18T03:29:50;-8.60;1.00
6270;DHT22;3168;51.684;6.954;2022-12-18T03:32:18;-8.60;1.00
6270;DHT22;3168;51.684;6.954;2022-12-18T03:34:42;-8.70;1.00
6270;DHT22;3168;51.684;6.954;2022-12-18T03:37:07;-8.70;1.00
6270;DHT22;3168;51.684;6.954;2022-12-18T03:39:34;-8.70;1.00
6270;DHT22;3168;51.684;6.954;2022-12-18T03:42:05;-8.70;1.00
6270;DHT22;3168;51.684;6.954;2022-12-18T03:44:32;-8.80;1.00
6270;DHT22;3168;51.684;6.954;2022-12-18T03:47:07;-8.50;1.00
6270;DHT22;3168;51.684;6.954;2022-12-18T03:49:35;-8.50;1.00
6270;DHT22;3168;51.684;6.954;2022-12-18T03:52:10;-8.40;1.00
6270;DHT22;3168;51.684;6.954;2022-12-18T03:54:35;-8.40;1.00
6270;DHT22;3168;51.684;6.954;2022-12-18T03:57:05;-8.40;1.00
6270;DHT22;3168;51.684;6.954;2022-12-18T03:59:29;-8.50;1.00
6270;DHT22;3168;51.684;6.954;2022-12-18T04:01:55;-8.50;1.00
6270;DHT22;3168;51.684;6.954;2022-12-18T04:04:21;-8.50;1.00
6270;DHT22;3168;51.684;6.954;2022-12-18T04:06:47;-8.60;1.00
6270;DHT22;3168;51.684;6.954;2022-12-18T04:09:13;-8.60;1.00
6270;DHT22;3168;51.684;6.954;2022-12-18T04:11:39;-8.60;1.00
6270;DHT22;3168;51.684;6.954;2022-12-18T04:14:04;-8.60;1.00
6270;DHT22;3168;51.684;6.954;2022-12-18T04:16:30;-8.70;1.00
6270;DHT22;3168;51.684;6.954;2022-12-18T04:18:56;-8.70;1.00
6270;DHT22;3168;51.684;6.954;2022-12-18T04:21:23;-8.70;1.00
6270;DHT22;3168;51.684;6.954;2022-12-18T04:23:49;-8.70;1.00
6270;DHT22;3168;51.684;6.954;2022-12-18T04:26:14;-8.70;1.00
6270;DHT22;3168;51.684;6.954;2022-12-18T04:28:40;-8.70;1.00
6270;DHT22;3168;51.684;6.954;2022-12-18T04:31:06;-8.70;1.00
6270;DHT22;3168;51.684;6.954;2022-12-18T04:33:32;-8.60;1.00
6270;DHT22;3168;51.684;6.954;2022-12-18T04:36:03;-8.70;1.00
6270;DHT22;3168;51.684;6.954;2022-12-18T04:38:29;-8.70;1.00
6270;DHT22;3168;51.684;6.954;2022-12-18T04:40:55;-8.70;1.00
6270;DHT22;3168;51.684;6.954;2022-12-18T04:43:21;-8.70;1.00
6270;DHT22;3168;51.684;6.954;2022-12-18T04:45:47;-8.70;1.00
6270;DHT22;3168;51.684;6.954;2022-12-18T04:48:13;-8.60;1.00
6270;DHT22;3168;51.684;6.954;2022-12-18T04:50:38;-8.70;1.00
6270;DHT22;3168;51.684;6.954;2022-12-18T04:53:04;-8.70;1.00
6270;DHT22;3168;51.684;6.954;2022-12-18T04:55:30;-8.80;1.00
6270;DHT22;3168;51.684;6.954;2022-12-18T04:57:56;-8.90;1.00
6270;DHT22;3168;51.684;6.954;2022-12-18T05:00:22;-8.80;1.00
6270;DHT22;3168;51.684;6.954;2022-12-18T05:02:48;-8.80;1.00
6270;DHT22;3168;51.684;6.954;2022-12-18T05:05:13;-8.80;1.00
6270;DHT22;3168;51.684;6.954;2022-12-18T05:07:39;-8.80;1.00
6270;DHT22;3168;51.684;6.954;2022-12-18T05:10:07;-8.80;1.00
6270;DHT22;3168;51.684;6.954;2022-12-18T05:12:33;-8.80;1.00
6270;DHT22;3168;51.684;6.954;2022-12-18T05:14:58;-8.70;1.00
6270;DHT22;3168;51.684;6.954;2022-12-18T05:17:24;-8.70;1.00
6270;DHT22;3168;51.684;6.954;2022-12-18T05:19:50;-8.70;1.00
6270;DHT22;3168;51.684;6.954;2022-12-18T05:22:16;-8.80;1.00
6270;DHT22;3168;51.684;6.954;2022-12-18T05:24:42;-8.70;1.00
6270;DHT22;3168;51.684;6.954;2022-12-18T05:27:08;-8.70;1.00
6270;DHT22;3168;51.684;6.954;2022-12-18T05:29:34;-8.70;1.00
6270;DHT22;3168;51.684;6.954;2022-12-18T05:31:59;-8.70;1.00
6270;DHT22;3168;51.684;6.954;2022-12-18T05:34:25;-8.50;1.00
6270;DHT22;3168;51.684;6.954;2022-12-18T05:36:51;-8.60;1.00
6270;DHT22;3168;51.684;6.954;2022-12-18T05:39:17;-8.40;1.00
6270;DHT22;3168;51.684;6.954;2022-12-18T05:41:43;-8.40;1.00
6270;DHT22;3168;51.684;6.954;2022-12-18T05:44:09;-8.50;1.00
6270;DHT22;3168;51.684;6.954;2022-12-18T05:46:34;-8.50;1.00
6270;DHT22;3168;51.684;6.954;2022-12-18T05:49:00;-8.50;1.00
6270;DHT22;3168;51.684;6.954;2022-12-18T05:51:26;-8.40;1.00
6270;DHT22;3168;51.684;6.954;2022-12-18T05:53:52;-8.40;1.00
6270;DHT22;3168;51.684;6.954;2022-12-18T05:56:21;-8.40;1.00
6270;DHT22;3168;51.684;6.954;2022-12-18T05:58:44;-8.40;1.00
6270;DHT22;3168;51.684;6.954;2022-12-18T06:01:12;-8.40;1.00
6270;DHT22;3168;51.684;6.954;2022-12-18T06:03:37;-8.50;1.00
6270;DHT22;3168;51.684;6.954;2022-12-18T06:06:03;-8.50;1.00
6270;DHT22;3168;51.684;6.954;2022-12-18T06:08:28;-8.40;1.00
6270;DHT22;3168;51.684;6.954;2022-12-18T06:10:55;-8.40;1.00
6270;DHT22;3168;51.684;6.954;2022-12-18T06:13:21;-8.40;1.00
6270;DHT22;3168;51.684;6.954;2022-12-18T06:15:47;-8.40;1.00
6270;DHT22;3168;51.684;6.954;2022-12-18T06:18:13;-8.30;1.00
6270;DHT22;3168;51.684;6.954;2022-12-18T06:20:39;-8.40;1.00
6270;DHT22;3168;51.684;6.954;2022-12-18T06:23:05;-8.40;1.00
6270;DHT22;3168;51.684;6.954;2022-12-18T06:25:30;-8.20;1.00
6270;DHT22;3168;51.684;6.954;2022-12-18T06:27:56;-8.20;1.00
6270;DHT22;3168;51.684;6.954;2022-12-18T06:30:22;-8.20;1.00
6270;DHT22;3168;51.684;6.954;2022-12-18T06:32:48;-8.30;1.00
6270;DHT22;3168;51.684;6.954;2022-12-18T06:35:14;-8.30;1.00
6270;DHT22;3168;51.684;6.954;2022-12-18T06:37:40;-8.30;1.00
6270;DHT22;3168;51.684;6.954;2022-12-18T06:40:06;-8.30;1.00
6270;DHT22;3168;51.684;6.954;2022-12-18T06:42:32;-8.40;1.00
6270;DHT22;3168;51.684;6.954;2022-12-18T06:44:58;-8.40;1.00
6270;DHT22;3168;51.684;6.954;2022-12-18T06:47:24;-8.40;1.00
6270;DHT22;3168;51.684;6.954;2022-12-18T06:49:49;-8.50;1.00
6270;DHT22;3168;51.684;6.954;2022-12-18T06:52:15;-8.50;1.00
6270;DHT22;3168;51.684;6.954;2022-12-18T06:54:41;-8.50;1.00
6270;DHT22;3168;51.684;6.954;2022-12-18T06:57:07;-8.50;1.00
6270;DHT22;3168;51.684;6.954;2022-12-18T06:59:33;-8.50;1.00
6270;DHT22;3168;51.684;6.954;2022-12-18T07:01:59;-8.50;1.00
6270;DHT22;3168;51.684;6.954;2022-12-18T07:04:28;-8.50;1.00
6270;DHT22;3168;51.684;6.954;2022-12-18T07:06:54;-8.30;1.00
6270;DHT22;3168;51.684;6.954;2022-12-18T07:09:20;-8.30;1.00
6270;DHT22;3168;51.684;6.954;2022-12-18T07:11:45;-8.20;1.00
6270;DHT22;3168;51.684;6.954;2022-12-18T07:14:11;-8.10;1.00
6270;DHT22;3168;51.684;6.954;2022-12-18T07:16:37;-8.10;1.00
6270;DHT22;3168;51.684;6.954;2022-12-18T07:19:04;-8.00;1.00
6270;DHT22;3168;51.684;6.954;2022-12-18T07:21:30;-8.00;1.00
6270;DHT22;3168;51.684;6.954;2022-12-18T07:23:55;-8.00;1.00
6270;DHT22;3168;51.684;6.954;2022-12-18T07:26:22;-7.90;1.00
6270;DHT22;3168;51.684;6.954;2022-12-18T07:28:48;-7.90;1.00
6270;DHT22;3168;51.684;6.954;2022-12-18T07:31:15;-7.90;1.00
6270;DHT22;3168;51.684;6.954;2022-12-18T07:33:40;-7.90;1.00
6270;DHT22;3168;51.684;6.954;2022-12-18T07:36:06;-7.90;1.00
6270;DHT22;3168;51.684;6.954;2022-12-18T07:38:32;-8.00;1.00
6270;DHT22;3168;51.684;6.954;2022-12-18T07:41:01;-7.90;1.00
6270;DHT22;3168;51.684;6.954;2022-12-18T07:43:26;-7.90;1.00
6270;DHT22;3168;51.684;6.954;2022-12-18T07:45:52;-7.80;1.00
6270;DHT22;3168;51.684;6.954;2022-12-18T07:48:18;-7.70;1.00
6270;DHT22;3168;51.684;6.954;2022-12-18T07:50:44;-7.70;1.00
6270;DHT22;3168;51.684;6.954;2022-12-18T07:53:10;-7.60;1.00
6270;DHT22;3168;51.684;6.954;2022-12-18T07:55:36;-7.50;1.00
6270;DHT22;3168;51.684;6.954;2022-12-18T07:58:03;-7.50;1.00
6270;DHT22;3168;51.684;6.954;2022-12-18T08:00:29;-7.40;1.00
6270;DHT22;3168;51.684;6.954;2022-12-18T08:02:55;-7.40;1.00
6270;DHT22;3168;51.684;6.954;2022-12-18T08:05:21;-7.30;1.00
6270;DHT22;3168;51.684;6.954;2022-12-18T08:07:47;-7.30;1.00
6270;DHT22;3168;51.684;6.954;2022-12-18T08:10:13;-7.20;1.00
6270;DHT22;3168;51.684;6.954;2022-12-18T08:12:38;-7.20;1.00
6270;DHT22;3168;51.684;6.954;2022-12-18T08:15:05;-7.10;1.00
6270;DHT22;3168;51.684;6.954;2022-12-18T08:17:31;-7.00;1.00
6270;DHT22;3168;51.684;6.954;2022-12-18T08:19:57;-7.00;1.00
6270;DHT22;3168;51.684;6.954;2022-12-18T08:22:23;-6.90;1.00
6270;DHT22;3168;51.684;6.954;2022-12-18T08:24:48;-6.80;1.00
6270;DHT22;3168;51.684;6.954;2022-12-18T08:27:14;-6.70;1.00
6270;DHT22;3168;51.684;6.954;2022-12-18T08:29:40;-6.70;1.00
6270;DHT22;3168;51.684;6.954;2022-12-18T08:32:06;-6.60;1.00
6270;DHT22;3168;51.684;6.954;2022-12-18T08:34:32;-6.50;1.00
6270;DHT22;3168;51.684;6.954;2022-12-18T08:36:58;-6.40;1.00
6270;DHT22;3168;51.684;6.954;2022-12-18T08:39:23;-6.40;1.00
6270;DHT22;3168;51.684;6.954;2022-12-18T08:41:49;-6.30;1.00
6270;DHT22;3168;51.684;6.954;2022-12-18T08:44:33;-6.30;1.00
6270;DHT22;3168;51.684;6.954;2022-12-18T08:47:03;-6.20;1.00
6270;DHT22;3168;51.684;6.954;2022-12-18T08:49:29;-6.20;1.00
6270;DHT22;3168;51.684;6.954;2022-12-18T08:51:55;-6.20;1.00
6270;DHT22;3168;51.684;6.954;2022-12-18T08:54:20;-6.20;1.00
6270;DHT22;3168;51.684;6.954;2022-12-18T08:56:46;-6.00;1.00
6270;DHT22;3168;51.684;6.954;2022-12-18T08:59:12;-6.00;1.00
6270;DHT22;3168;51.684;6.954;2022-12-18T09:01:38;-5.90;1.00
6270;DHT22;3168;51.684;6.954;2022-12-18T09:04:04;-5.90;1.00
6270;DHT22;3168;51.684;6.954;2022-12-18T09:06:30;-5.70;1.00
6270;DHT22;3168;51.684;6.954;2022-12-18T09:08:56;-5.60;1.00
6270;DHT22;3168;51.684;6.954;2022-12-18T09:11:22;-5.50;1.00
6270;DHT22;3168;51.684;6.954;2022-12-18T09:13:47;-5.40;1.00
6270;DHT22;3168;51.684;6.954;2022-12-18T09:16:13;-5.30;1.00
6270;DHT22;3168;51.684;6.954;2022-12-18T09:18:39;-5.30;1.00
6270;DHT22;3168;51.684;6.954;2022-12-18T09:21:08;-5.30;1.00
6270;DHT22;3168;51.684;6.954;2022-12-18T09:23:33;-5.20;1.00
6270;DHT22;3168;51.684;6.954;2022-12-18T09:25:59;-5.10;1.00
6270;DHT22;3168;51.684;6.954;2022-12-18T09:28:26;-5.00;1.00
6270;DHT22;3168;51.684;6.954;2022-12-18T09:30:50;-5.00;1.00
6270;DHT22;3168;51.684;6.954;2022-12-18T09:33:16;-4.90;1.00
6270;DHT22;3168;51.684;6.954;2022-12-18T09:35:42;-4.70;1.00
6270;DHT22;3168;51.684;6.954;2022-12-18T09:38:08;-4.60;1.00
6270;DHT22;3168;51.684;6.954;2022-12-18T09:40:35;-4.40;1.00
6270;DHT22;3168;51.684;6.954;2022-12-18T09:43:01;-4.40;1.00
6270;DHT22;3168;51.684;6.954;2022-12-18T09:45:26;-4.40;1.00
6270;DHT22;3168;51.684;6.954;2022-12-18T09:47:52;-4.20;1.00
6270;DHT22;3168;51.684;6.954;2022-12-18T09:50:23;-4.20;1.00
6270;DHT22;3168;51.684;6.954;2022-12-18T09:52:47;-4.20;1.00
6270;DHT22;3168;51.684;6.954;2022-12-18T09:55:30;-4.20;1.00
6270;DHT22;3168;51.684;6.954;2022-12-18T09:57:56;-4.10;1.00
6270;DHT22;3168;51.684;6.954;2022-12-18T10:00:22;-4.00;1.00
6270;DHT22;3168;51.684;6.954;2022-12-18T10:02:47;-3.90;1.00
6270;DHT22;3168;51.684;6.954;2022-12-18T10:05:14;-3.90;1.00
6270;DHT22;3168;51.684;6.954;2022-12-18T10:07:50;-3.80;1.00
6270;DHT22;3168;51.684;6.954;2022-12-18T10:10:17;-3.80;1.00
6270;DHT22;3168;51.684;6.954;2022-12-18T10:13:00;-3.70;1.00
6270;DHT22;3168;51.684;6.954;2022-12-18T10:15:36;-3.60;1.00
6270;DHT22;3168;51.684;6.954;2022-12-18T10:18:10;-3.60;1.00
6270;DHT22;3168;51.684;6.954;2022-12-18T10:20:40;-3.40;1.00
6270;DHT22;3168;51.684;6.954;2022-12-18T10:23:17;-3.50;1.00
6270;DHT22;3168;51.684;6.954;2022-12-18T10:25:51;-3.40;1.00
6270;DHT22;3168;51.684;6.954;2022-12-18T10:28:16;-3.30;1.00
6270;DHT22;3168;51.684;6.954;2022-12-18T10:30:42;-3.30;1.00
6270;DHT22;3168;51.684;6.954;2022-12-18T10:33:12;-3.30;1.00
6270;DHT22;3168;51.684;6.954;2022-12-18T10:35:37;-3.30;1.00
6270;DHT22;3168;51.684;6.954;2022-12-18T10:38:07;-3.20;1.00
6270;DHT22;3168;51.684;6.954;2022-12-18T10:40:32;-3.30;1.00
6270;DHT22;3168;51.684;6.954;2022-12-18T10:43:03;-3.10;1.00
6270;DHT22;3168;51.684;6.954;2022-12-18T10:45:28;-3.00;1.00
6270;DHT22;3168;51.684;6.954;2022-12-18T10:47:54;-3.00;1.00
6270;DHT22;3168;51.684;6.954;2022-12-18T10:50:26;-2.90;1.00
6270;DHT22;3168;51.684;6.954;2022-12-18T10:52:55;-2.90;1.00
6270;DHT22;3168;51.684;6.954;2022-12-18T10:55:20;-2.80;1.00
6270;DHT22;3168;51.684;6.954;2022-12-18T10:57:46;-2.70;1.00
6270;DHT22;3168;51.684;6.954;2022-12-18T11:00:23;-2.70;1.00
6270;DHT22;3168;51.684;6.954;2022-12-18T11:02:48;-2.60;1.00
6270;DHT22;3168;51.684;6.954;2022-12-18T11:05:35;-2.60;1.00
6270;DHT22;3168;51.684;6.954;2022-12-18T11:08:00;-2.50;1.00
6270;DHT22;3168;51.684;6.954;2022-12-18T11:10:31;-2.40;1.00
6270;DHT22;3168;51.684;6.954;2022-12-18T11:13:08;-2.40;1.00
6270;DHT22;3168;51.684;6.954;2022-12-18T11:15:26;-2.40;1.00
6270;DHT22;3168;51.684;6.954;2022-12-18T11:17:49;-2.40;1.00
6270;DHT22;3168;51.684;6.954;2022-12-18T11:23:05;-2.40;1.00
6270;DHT22;3168;51.684;6.954;2022-12-18T11:25:31;-2.30;1.00
6270;DHT22;3168;51.684;6.954;2022-12-18T11:27:58;-2.30;1.00
6270;DHT22;3168;51.684;6.954;2022-12-18T11:30:25;-2.30;1.00
6270;DHT22;3168;51.684;6.954;2022-12-18T11:32:53;-2.20;1.00
6270;DHT22;3168;51.684;6.954;2022-12-18T11:35:32;-2.20;1.00
6270;DHT22;3168;51.684;6.954;2022-12-18T11:37:48;-2.20;1.00
6270;DHT22;3168;51.684;6.954;2022-12-18T11:40:15;-2.20;1.00
6270;DHT22;3168;51.684;6.954;2022-12-18T11:42:45;-2.10;1.00
6270;DHT22;3168;51.684;6.954;2022-12-18T11:45:27;-2.10;1.00
6270;DHT22;3168;51.684;6.954;2022-12-18T11:48:05;-2.10;1.00
6270;DHT22;3168;51.684;6.954;2022-12-18T11:50:48;-2.00;1.00
6270;DHT22;3168;51.684;6.954;2022-12-18T11:53:09;-1.90;1.00
6270;DHT22;3168;51.684;6.954;2022-12-18T11:55:37;-1.90;1.00
6270;DHT22;3168;51.684;6.954;2022-12-18T11:58:02;-1.70;1.00
6270;DHT22;3168;51.684;6.954;2022-12-18T12:00:25;-1.80;1.00
6270;DHT22;3168;51.684;6.954;2022-12-18T12:03:39;-1.70;1.00
6270;DHT22;3168;51.684;6.954;2022-12-18T12:05:48;-1.70;1.00
6270;DHT22;3168;51.684;6.954;2022-12-18T12:08:26;-1.70;1.00
6270;DHT22;3168;51.684;6.954;2022-12-18T12:16:35;-1.50;1.00
6270;DHT22;3168;51.684;6.954;2022-12-18T12:19:22;-1.60;1.00
6270;DHT22;3168;51.684;6.954;2022-12-18T12:21:52;-1.40;1.00
6270;DHT22;3168;51.684;6.954;2022-12-18T12:24:27;-1.40;1.00
6270;DHT22;3168;51.684;6.954;2022-12-18T12:27:02;-1.50;1.00
6270;DHT22;3168;51.684;6.954;2022-12-18T12:32:11;-1.50;1.00
6270;DHT22;3168;51.684;6.954;2022-12-18T12:34:54;-1.50;1.00
6270;DHT22;3168;51.684;6.954;2022-12-18T12:40:02;-1.40;1.00
6270;DHT22;3168;51.684;6.954;2022-12-18T12:42:34;-1.50;1.00
6270;DHT22;3168;51.684;6.954;2022-12-18T12:45:06;-1.40;1.00
6270;DHT22;3168;51.684;6.954;2022-12-18T12:47:35;-1.30;1.00
6270;DHT22;3168;51.684;6.954;2022-12-18T12:49:59;-1.20;1.00
6270;DHT22;3168;51.684;6.954;2022-12-18T12:52:32;-1.30;1.00
6270;DHT22;3168;51.684;6.954;2022-12-18T12:54:56;-1.20;1.00
6270;DHT22;3168;51.684;6.954;2022-12-18T12:57:25;-1.20;1.00
6270;DHT22;3168;51.684;6.954;2022-12-18T13:00:07;-1.20;1.00
6270;DHT22;3168;51.684;6.954;2022-12-18T13:02:39;-1.10;1.00
6270;DHT22;3168;51.684;6.954;2022-12-18T13:05:06;-1.10;1.00
6270;DHT22;3168;51.684;6.954;2022-12-18T13:07:37;-1.00;1.00
6270;DHT22;3168;51.684;6.954;2022-12-18T13:10:31;-1.00;1.00
6270;DHT22;3168;51.684;6.954;2022-12-18T13:12:55;-1.00;1.00
6270;DHT22;3168;51.684;6.954;2022-12-18T13:15:38;-1.00;1.00
6270;DHT22;3168;51.684;6.954;2022-12-18T13:21:18;-1.00;1.00
6270;DHT22;3168;51.684;6.954;2022-12-18T13:23:42;-0.90;1.00
6270;DHT22;3168;51.684;6.954;2022-12-18T13:29:40;-0.90;1.00
6270;DHT22;3168;51.684;6.954;2022-12-18T13:31:59;-0.90;1.00
6270;DHT22;3168;51.684;6.954;2022-12-18T13:34:29;-0.90;1.00
6270;DHT22;3168;51.684;6.954;2022-12-18T13:39:46;-1.00;1.00
6270;DHT22;3168;51.684;6.954;2022-12-18T13:42:36;-0.90;1.00
6270;DHT22;3168;51.684;6.954;2022-12-18T13:45:34;-0.90;1.00
6270;DHT22;3168;51.684;6.954;2022-12-18T13:47:42;-0.90;1.00
6270;DHT22;3168;51.684;6.954;2022-12-18T13:50:13;-0.80;1.00
6270;DHT22;3168;51.684;6.954;2022-12-18T13:52:36;-0.80;1.00
6270;DHT22;3168;51.684;6.954;2022-12-18T13:55:02;-0.90;1.00
6270;DHT22;3168;51.684;6.954;2022-12-18T13:57:35;-0.90;1.00
6270;DHT22;3168;51.684;6.954;2022-12-18T14:02:54;-0.80;1.00
6270;DHT22;3168;51.684;6.954;2022-12-18T14:06:06;-0.90;1.00
6270;DHT22;3168;51.684;6.954;2022-12-18T14:08:35;-0.90;1.00
6270;DHT22;3168;51.684;6.954;2022-12-18T14:11:19;-0.90;1.00
6270;DHT22;3168;51.684;6.954;2022-12-18T14:13:44;-1.00;1.00
6270;DHT22;3168;51.684;6.954;2022-12-18T14:16:11;-0.90;1.00
6270;DHT22;3168;51.684;6.954;2022-12-18T14:18:42;-0.90;1.00
6270;DHT22;3168;51.684;6.954;2022-12-18T14:21:06;-1.00;1.00
6270;DHT22;3168;51.684;6.954;2022-12-18T14:23:35;-1.10;1.00
6270;DHT22;3168;51.684;6.954;2022-12-18T14:26:01;-1.00;1.00
6270;DHT22;3168;51.684;6.954;2022-12-18T14:28:27;-1.00;1.00
6270;DHT22;3168;51.684;6.954;2022-12-18T14:30:54;-1.00;1.00
6270;DHT22;3168;51.684;6.954;2022-12-18T14:33:21;-1.00;1.00
6270;DHT22;3168;51.684;6.954;2022-12-18T14:35:55;-1.00;1.00
6270;DHT22;3168;51.684;6.954;2022-12-18T14:38:30;-0.90;1.00
6270;DHT22;3168;51.684;6.954;2022-12-18T14:41:00;-0.80;1.00
6270;DHT22;3168;51.684;6.954;2022-12-18T14:43:26;-0.90;1.00
6270;DHT22;3168;51.684;6.954;2022-12-18T14:45:52;-0.90;1.00
6270;DHT22;3168;51.684;6.954;2022-12-18T14:48:33;-0.90;1.00
6270;DHT22;3168;51.684;6.954;2022-12-18T14:51:05;-1.00;1.00
6270;DHT22;3168;51.684;6.954;2022-12-18T14:53:33;-0.80;1.00
6270;DHT22;3168;51.684;6.954;2022-12-18T14:55:58;-0.80;1.00
6270;DHT22;3168;51.684;6.954;2022-12-18T14:58:24;-0.70;1.00
6270;DHT22;3168;51.684;6.954;2022-12-18T15:00:52;-0.60;1.00
6270;DHT22;3168;51.684;6.954;2022-12-18T15:03:20;-0.70;1.00
6270;DHT22;3168;51.684;6.954;2022-12-18T15:05:47;-0.70;1.00
6270;DHT22;3168;51.684;6.954;2022-12-18T15:10:47;-0.60;1.00
6270;DHT22;3168;51.684;6.954;2022-12-18T15:13:20;-0.60;1.00
6270;DHT22;3168;51.684;6.954;2022-12-18T15:15:44;-0.70;1.00
6270;DHT22;3168;51.684;6.954;2022-12-18T15:18:12;-0.60;1.00
6270;DHT22;3168;51.684;6.954;2022-12-18T15:20:43;-0.60;1.00
6270;DHT22;3168;51.684;6.954;2022-12-18T15:23:28;-0.60;1.00
6270;DHT22;3168;51.684;6.954;2022-12-18T15:25:57;-0.60;1.00
6270;DHT22;3168;51.684;6.954;2022-12-18T15:28:24;-0.80;1.00
6270;DHT22;3168;51.684;6.954;2022-12-18T15:31:17;-0.60;1.00
6270;DHT22;3168;51.684;6.954;2022-12-18T15:33:36;-0.60;1.00
6270;DHT22;3168;51.684;6.954;2022-12-18T15:36:03;-0.50;1.00
6270;DHT22;3168;51.684;6.954;2022-12-18T15:38:27;-0.60;1.00
6270;DHT22;3168;51.684;6.954;2022-12-18T15:40:53;-0.40;1.00
6270;DHT22;3168;51.684;6.954;2022-12-18T15:43:24;-0.50;1.00
6270;DHT22;3168;51.684;6.954;2022-12-18T15:45:56;-0.50;1.00
6270;DHT22;3168;51.684;6.954;2022-12-18T15:48:22;-0.50;1.00
6270;DHT22;3168;51.684;6.954;2022-12-18T15:50:49;-0.60;1.00
6270;DHT22;3168;51.684;6.954;2022-12-18T15:53:17;-0.70;1.00
6270;DHT22;3168;51.684;6.954;2022-12-18T15:55:44;-0.60;1.00
6270;DHT22;3168;51.684;6.954;2022-12-18T15:58:16;-0.60;1.00
6270;DHT22;3168;51.684;6.954;2022-12-18T16:00:42;-0.60;1.00
6270;DHT22;3168;51.684;6.954;2022-12-18T16:03:10;-0.60;1.00
6270;DHT22;3168;51.684;6.954;2022-12-18T16:05:36;-0.60;1.00
6270;DHT22;3168;51.684;6.954;2022-12-18T16:08:02;-0.80;1.00
6270;DHT22;3168;51.684;6.954;2022-12-18T16:10:29;-0.70;1.00
6270;DHT22;3168;51.684;6.954;2022-12-18T16:12:55;-0.60;1.00
6270;DHT22;3168;51.684;6.954;2022-12-18T16:15:21;-0.60;1.00
6270;DHT22;3168;51.684;6.954;2022-12-18T16:17:47;-0.60;1.00
6270;DHT22;3168;51.684;6.954;2022-12-18T16:20:15;-0.70;1.00
6270;DHT22;3168;51.684;6.954;2022-12-18T16:22:41;-0.70;1.00
6270;DHT22;3168;51.684;6.954;2022-12-18T16:25:10;-0.70;1.00
6270;DHT22;3168;51.684;6.954;2022-12-18T16:27:34;-0.50;1.00
6270;DHT22;3168;51.684;6.954;2022-12-18T16:30:01;-0.70;1.00
6270;DHT22;3168;51.684;6.954;2022-12-18T16:32:27;-0.70;1.00
6270;DHT22;3168;51.684;6.954;2022-12-18T16:34:53;-0.80;1.00
6270;DHT22;3168;51.684;6.954;2022-12-18T16:37:19;-0.80;1.00
6270;DHT22;3168;51.684;6.954;2022-12-18T16:39:45;-0.70;1.00
6270;DHT22;3168;51.684;6.954;2022-12-18T16:42:14;-0.60;1.00
6270;DHT22;3168;51.684;6.954;2022-12-18T16:44:39;-0.70;1.00
6270;DHT22;3168;51.684;6.954;2022-12-18T16:47:05;-0.70;1.00
6270;DHT22;3168;51.684;6.954;2022-12-18T16:49:33;-0.70;1.00
6270;DHT22;3168;51.684;6.954;2022-12-18T16:52:00;-0.70;1.00